createdAt,value
2023-03-01T00:00:54.641Z,103490
2023-03-01T00:05:54.635Z,103490
2023-03-01T00:10:54.688Z,103480
2023-03-01T00:15:54.652Z,103470
2023-03-01T00:20:54.636Z,103470
2023-03-01T00:25:54.644Z,103470
2023-03-01T00:30:54.673Z,103480
2023-03-01T00:35:54.694Z,103470
2023-03-01T00:40:54.669Z,103460
2023-03-01T00:45:54.713Z,103460
2023-03-01T00:50:54.660Z,103460
2023-03-01T00:55:54.656Z,103450
2023-03-01T01:00:54.661Z,103450
2023-03-01T01:05:54.678Z,103440
2023-03-01T01:10:54.670Z,103440
2023-03-01T01:15:54.749Z,103430
2023-03-01T01:20:54.684Z,103440
2023-03-01T01:25:54.683Z,103430
2023-03-01T01:30:54.682Z,103430
2023-03-01T01:35:54.736Z,103420
2023-03-01T01:40:54.682Z,103420
2023-03-01T01:45:54.737Z,103420
2023-03-01T01:50:54.680Z,103420
2023-03-01T01:55:54.692Z,103420
2023-03-01T02:00:54.695Z,103420
2023-03-01T02:05:55.474Z,103410
2023-03-01T02:10:54.696Z,103410
2023-03-01T02:15:54.788Z,103410
2023-03-01T02:20:54.698Z,103400
2023-03-01T02:25:54.705Z,103400
2023-03-01T02:30:54.714Z,103400
2023-03-01T02:35:54.763Z,103390
2023-03-01T02:40:54.717Z,103400
2023-03-01T02:45:54.782Z,103400
2023-03-01T02:50:54.722Z,103390
2023-03-01T02:55:54.726Z,103390
2023-03-01T03:00:54.810Z,103380
2023-03-01T03:05:54.736Z,103380
2023-03-01T03:10:54.726Z,103370
2023-03-01T03:15:54.785Z,103370
2023-03-01T03:20:54.733Z,103370
2023-03-01T03:25:54.735Z,103370
2023-03-01T03:30:54.738Z,103370
2023-03-01T03:35:54.785Z,103360
2023-03-01T03:40:54.746Z,103360
2023-03-01T03:45:54.835Z,103350
2023-03-01T03:50:54.748Z,103350
2023-03-01T03:55:54.760Z,103360
2023-03-01T04:00:54.760Z,103360
2023-03-01T04:05:54.773Z,103360
2023-03-01T04:10:54.757Z,103350
2023-03-01T04:15:54.828Z,103360
2023-03-01T04:20:54.758Z,103350
2023-03-01T04:25:54.916Z,103350
2023-03-01T04:30:54.772Z,103360
2023-03-01T04:35:54.897Z,103360
2023-03-01T04:40:54.782Z,103350
2023-03-01T04:45:54.885Z,103340
2023-03-01T04:50:54.779Z,103330
2023-03-01T04:55:54.786Z,103330
2023-03-01T05:00:54.785Z,103310
2023-03-01T05:05:54.794Z,103310
2023-03-01T05:10:54.786Z,103310
2023-03-01T05:15:54.833Z,103300
2023-03-01T05:20:54.790Z,103290
2023-03-01T05:25:54.798Z,103290
2023-03-01T05:30:54.826Z,103290
2023-03-01T05:35:54.857Z,103280
2023-03-01T05:40:54.813Z,103280
2023-03-01T05:45:54.889Z,103280
2023-03-01T05:50:54.809Z,103280
2023-03-01T05:55:54.823Z,103270
2023-03-01T06:00:56.196Z,103270
2023-03-01T06:05:54.832Z,103270
2023-03-01T06:10:54.821Z,103280
2023-03-01T06:15:54.862Z,103270
2023-03-01T06:20:54.830Z,103270
2023-03-01T06:25:54.864Z,103270
2023-03-01T06:30:54.855Z,103270
2023-03-01T06:35:54.931Z,103270
2023-03-01T06:40:54.849Z,103270
2023-03-01T06:45:54.908Z,103280
2023-03-01T06:50:54.885Z,103270
2023-03-01T06:55:54.846Z,103270
2023-03-01T07:00:54.850Z,103280
2023-03-01T07:05:55.096Z,103270
2023-03-01T07:10:54.860Z,103280
2023-03-01T07:15:54.987Z,103280
2023-03-01T07:20:54.856Z,103280
2023-03-01T07:25:54.863Z,103280
2023-03-01T07:30:54.868Z,103290
2023-03-01T07:35:54.919Z,103290
2023-03-01T07:40:54.878Z,103290
2023-03-01T07:45:54.961Z,103280
2023-03-01T07:50:54.912Z,103280
2023-03-01T07:55:54.874Z,103270
2023-03-01T08:00:54.887Z,103280
2023-03-01T08:05:54.907Z,103280
2023-03-01T08:10:54.877Z,103280
2023-03-01T08:15:54.908Z,103290
2023-03-01T08:20:54.891Z,103280
2023-03-01T08:25:54.883Z,103280
2023-03-01T08:30:54.887Z,103270
2023-03-01T08:35:54.994Z,103270
2023-03-01T08:40:54.897Z,103270
2023-03-01T08:45:55.064Z,103260
2023-03-01T08:50:54.900Z,103260
2023-03-01T08:55:54.929Z,103260
2023-03-01T09:00:54.906Z,103260
2023-03-01T09:05:54.917Z,103240
2023-03-01T09:10:54.925Z,103240
2023-03-01T09:15:54.946Z,103240
2023-03-01T09:20:54.923Z,103230
2023-03-01T09:25:54.923Z,103230
2023-03-01T09:30:54.972Z,103230
2023-03-01T09:35:54.972Z,103220
2023-03-01T09:40:54.933Z,103220
2023-03-01T09:45:54.998Z,103210
2023-03-01T09:50:54.951Z,103210
2023-03-01T09:55:54.949Z,103200
2023-03-01T10:00:54.942Z,103200
2023-03-01T10:05:54.962Z,103180
2023-03-01T10:10:54.972Z,103180
2023-03-01T10:15:55.004Z,103180
2023-03-01T10:20:54.968Z,103170
2023-03-01T10:25:54.987Z,103170
2023-03-01T10:30:55.001Z,103160
2023-03-01T10:35:54.975Z,103150
2023-03-01T10:40:55.013Z,103160
2023-03-01T10:45:55.064Z,103150
2023-03-01T10:50:54.970Z,103150
2023-03-01T10:55:54.976Z,103150
2023-03-01T11:00:54.981Z,103140
2023-03-01T11:05:54.987Z,103130
2023-03-01T11:10:54.984Z,103120
2023-03-01T11:15:55.120Z,103120
2023-03-01T11:20:54.994Z,103120
2023-03-01T11:25:55.008Z,103120
2023-03-01T11:31:07.151Z,103110
2023-03-01T11:35:55.024Z,103100
2023-03-01T11:40:56.138Z,103100
2023-03-01T11:45:55.020Z,103100
2023-03-01T11:50:55.000Z,103090
2023-03-01T11:55:55.010Z,103080
2023-03-01T12:00:55.005Z,103080
2023-03-01T12:05:55.018Z,103080
2023-03-01T12:10:55.021Z,103080
2023-03-01T12:15:55.065Z,103070
2023-03-01T12:20:55.041Z,103080
2023-03-01T12:25:55.018Z,103070
2023-03-01T12:30:55.025Z,103060
2023-03-01T12:35:55.170Z,103070
2023-03-01T12:40:55.035Z,103060
2023-03-01T12:45:55.166Z,103060
2023-03-01T12:50:55.031Z,103040
2023-03-01T12:55:55.042Z,103040
2023-03-01T13:00:55.064Z,103030
2023-03-01T13:05:55.051Z,103020
2023-03-01T13:10:55.051Z,103010
2023-03-01T13:15:55.101Z,103000
2023-03-01T13:20:55.047Z,102990
2023-03-01T13:25:55.059Z,102980
2023-03-01T13:30:55.056Z,102970
2023-03-01T13:35:55.151Z,102960
2023-03-01T13:40:55.059Z,102950
2023-03-01T13:45:55.159Z,102950
2023-03-01T13:50:55.077Z,102950
2023-03-01T13:55:55.076Z,102940
2023-03-01T14:00:55.187Z,102930
2023-03-01T14:06:01.941Z,102930
2023-03-01T14:10:55.092Z,102930
2023-03-01T14:15:55.099Z,102920
2023-03-01T14:20:55.092Z,102910
2023-03-01T14:25:55.098Z,102900
2023-03-01T14:30:55.122Z,102880
2023-03-01T14:35:55.173Z,102870
2023-03-01T14:40:55.100Z,102860
2023-03-01T14:45:55.159Z,102860
2023-03-01T14:50:55.112Z,102860
2023-03-01T14:55:55.109Z,102860
2023-03-01T15:00:55.122Z,102860
2023-03-01T15:05:55.119Z,102850
2023-03-01T15:10:55.131Z,102850
2023-03-01T15:15:55.157Z,102850
2023-03-01T15:20:55.124Z,102850
2023-03-01T15:25:55.131Z,102840
2023-03-01T15:30:55.237Z,102840
2023-03-01T15:35:55.263Z,102840
2023-03-01T15:40:55.139Z,102830
2023-03-01T15:45:55.152Z,102840
2023-03-01T15:50:55.133Z,102830
2023-03-01T15:55:55.134Z,102840
2023-03-01T16:01:00.716Z,102830
2023-03-01T16:05:55.151Z,102830
2023-03-01T16:10:55.161Z,102830
2023-03-01T16:15:55.215Z,102830
2023-03-01T16:20:55.153Z,102830
2023-03-01T16:25:55.157Z,102820
2023-03-01T16:30:55.189Z,102820
2023-03-01T16:35:55.255Z,102820
2023-03-01T16:40:55.185Z,102820
2023-03-01T16:45:55.249Z,102820
2023-03-01T16:50:55.179Z,102820
2023-03-01T16:55:55.180Z,102820
2023-03-01T17:00:55.229Z,102820
2023-03-01T17:05:55.210Z,102830
2023-03-01T17:10:55.193Z,102830
2023-03-01T17:15:55.201Z,102830
2023-03-01T17:20:55.201Z,102830
2023-03-01T17:25:55.193Z,102830
2023-03-01T17:30:55.206Z,102840
2023-03-01T17:35:55.234Z,102840
2023-03-01T17:40:55.214Z,102830
2023-03-01T17:45:55.262Z,102830
2023-03-01T17:50:55.200Z,102840
2023-03-01T17:55:55.209Z,102840
2023-03-01T18:00:55.257Z,102840
2023-03-01T18:05:57.286Z,102850
2023-03-01T18:10:55.240Z,102850
2023-03-01T18:15:55.288Z,102860
2023-03-01T18:20:55.220Z,102850
2023-03-01T18:25:55.220Z,102860
2023-03-01T18:30:55.245Z,102860
2023-03-01T18:35:55.280Z,102860
2023-03-01T18:40:55.255Z,102860
2023-03-01T18:45:55.353Z,102860
2023-03-01T18:50:55.285Z,102860
2023-03-01T18:55:57.875Z,102870
2023-03-01T19:00:55.241Z,102860
2023-03-01T19:05:55.246Z,102870
2023-03-01T19:10:55.252Z,102870
2023-03-01T19:15:55.301Z,102870
2023-03-01T19:20:58.921Z,102880
2023-03-01T19:25:55.256Z,102880
2023-03-01T19:30:55.344Z,102890
2023-03-01T19:35:56.759Z,102890
2023-03-01T19:40:55.271Z,102890
2023-03-01T19:45:55.378Z,102890
2023-03-01T19:50:55.273Z,102880
2023-03-01T19:55:55.263Z,102880
2023-03-01T20:00:55.282Z,102880
2023-03-01T20:05:55.279Z,102870
2023-03-01T20:10:55.286Z,102870
2023-03-01T20:15:55.335Z,102870
2023-03-01T20:20:55.319Z,102870
2023-03-01T20:25:55.284Z,102880
2023-03-01T20:30:55.290Z,102880
2023-03-01T20:35:56.199Z,102880
2023-03-01T20:40:55.352Z,102880
2023-03-01T20:45:55.334Z,102880
2023-03-01T20:50:55.304Z,102880
2023-03-01T20:55:55.299Z,102880
2023-03-01T21:00:55.345Z,102880
2023-03-01T21:05:55.305Z,102880
2023-03-01T21:10:55.318Z,102880
2023-03-01T21:15:55.418Z,102870
2023-03-01T21:20:55.321Z,102880
2023-03-01T21:25:55.330Z,102880
2023-03-01T21:30:55.338Z,102880
2023-03-01T21:35:55.395Z,102880
2023-03-01T21:40:55.385Z,102880
2023-03-01T21:45:55.501Z,102880
2023-03-01T21:50:55.335Z,102880
2023-03-01T21:55:55.340Z,102870
2023-03-01T22:00:55.395Z,102880
2023-03-01T22:05:55.340Z,102880
2023-03-01T22:10:55.361Z,102880
2023-03-01T22:15:55.420Z,102880
2023-03-01T22:20:55.347Z,102880
2023-03-01T22:25:55.361Z,102880
2023-03-01T22:30:55.355Z,102880
2023-03-01T22:35:55.414Z,102880
2023-03-01T22:40:55.466Z,102870
2023-03-01T22:45:55.471Z,102870
2023-03-01T22:50:55.368Z,102880
2023-03-01T22:55:55.382Z,102880
2023-03-01T23:00:55.386Z,102880
2023-03-01T23:05:55.377Z,102880
2023-03-01T23:10:55.385Z,102870
2023-03-01T23:15:55.458Z,102860
2023-03-01T23:20:55.382Z,102850
2023-03-01T23:25:55.389Z,102850
2023-03-01T23:30:55.498Z,102850
2023-03-01T23:35:55.444Z,102870
2023-03-01T23:40:55.454Z,102860
2023-03-01T23:45:55.466Z,102860
2023-03-01T23:50:55.394Z,102860
2023-03-01T23:55:55.400Z,102860
